Back to top

Riverton, WY weather

Riverton Regional Airport, Riverton, WY: 11/13/2019 16:53
Visibility10 statute milesclear sky
View 7-Day Forecast
Area Summary
Sky/CloudsSky Clear
Weather [last 24 hours]None
Pressure30.06 in.Hg (1018 hPa)
3-hour Pressure Tendency0.002953 in.Hg (0.1 hPa) Decreasing or steady, then increasing; or increasing then increasing more rapidly
Dew Point26.1 °F (-3.3 °C)
Relative Humidity59.3 %
Temperature39 °F (3.9 °C)red thermometer
Wind Chill34.7 °F (1.52 °C)
Reading TimeMinimum to Maximum Temperature
6-hr ending 11/13@16:5339 °F to 48 °F (3.9 °C to 8.9 °C)
6-hr ending 11/13@10:5330.9 °F to 43 °F (-0.6 °C to 6.1 °C)
6-hr ending 11/13@04:5328.9 °F to 44.1 °F (-1.7 °C to 6.7 °C)
6-hr ending 11/12@22:5326.1 °F to 32 °F (-3.3 °C to 0 °C)
24-hr ending 11/12@23:535 °F to 35.1 °F (-15 °C to 1.7 °C)
Wind5.75 MPH (5 KT) green arrow pointing 67.5 degrees
Wind FromEast/Northeast (060 Degrees)
Rolling 24-hr Peak Wind35.7 MPH (31 KT) on 11/13@03:00
Rolling 24-hr Peak Wind FromNorthwest (310 Degrees)
Twilight Begins06:33Sunshine Yesterday
Sunrise07:03N/A
Sunset16:53
Twilight Ends17:24
METARKRIW 132353Z AUTO 06005KT 10SM CLR 04/M03 A3006 RMK AO2 SLP179 T00391033 10089 20039 53001
Tags: